Time;durP1;ratioP1;P1;durP2;ratioP2;P2;SDS_P1;SDS_P2;PMS_P1;PMS_P2;Temp;Humidity;BMP_temperature;BMP_pressure;BME280_temperature;BME280_humidity;BME280_pressure;Samples;Min_cycle;Max_cycle;Signal;HPM_P1;HPM_P2
2023/04/22 00:02:05;;;;;;;0.45;0.45;;;;;;;11.16;36.27;100720.72;5022464;28;20083;-57
2023/04/22 00:04:32;;;;;;;0.65;0.65;;;;;;;11.19;36.20;100714.63;5023894;28;20022;-57
2023/04/22 00:06:58;;;;;;;0.40;0.40;;;;;;;11.19;36.35;100714.63;5022967;28;20030;-58
2023/04/22 00:09:24;;;;;;;0.30;0.30;;;;;;;11.18;36.27;100713.78;5023453;28;20026;-58
2023/04/22 00:11:50;;;;;;;0.30;0.30;;;;;;;11.19;36.29;100709.41;5024069;28;20030;-58
2023/04/22 00:14:16;;;;;;;0.50;0.50;;;;;;;11.15;36.31;100701.63;5023500;28;20036;-56
2023/04/22 00:16:41;;;;;;;0.30;0.30;;;;;;;11.17;36.36;100700.78;5023921;28;20014;-56
2023/04/22 00:19:06;;;;;;;1.33;0.45;;;;;;;11.14;36.32;100697.31;5023463;28;20075;-56
2023/04/22 00:21:32;;;;;;;0.40;0.40;;;;;;;11.19;36.32;100693.81;5023980;28;20018;-58
2023/04/22 00:23:57;;;;;;;0.30;0.30;;;;;;;11.24;36.49;100705.06;5023879;28;20469;-58
2023/04/22 00:26:23;;;;;;;0.32;0.32;;;;;;;11.23;36.44;100695.56;5023837;28;20581;-58
2023/04/22 00:28:49;;;;;;;0.30;0.30;;;;;;;11.22;36.52;100699.00;5023629;28;20022;-57
2023/04/22 00:31:14;;;;;;;0.30;0.30;;;;;;;11.13;36.61;100692.97;5023874;28;20030;-54
2023/04/22 00:33:40;;;;;;;0.40;0.40;;;;;;;11.10;36.79;100689.56;5023693;28;20026;-56
2023/04/22 00:36:05;;;;;;;0.40;0.40;;;;;;;11.03;36.83;100683.53;5023517;28;20052;-56
2023/04/22 00:38:31;;;;;;;0.40;0.40;;;;;;;10.99;36.87;100687.03;5022981;28;20338;-57
2023/04/22 00:40:56;;;;;;;0.40;0.40;;;;;;;10.95;36.97;100680.09;5023461;28;20030;-56
2023/04/22 00:43:22;;;;;;;0.30;0.30;;;;;;;10.94;37.40;100683.59;5024194;28;20026;-58
2023/04/22 00:45:48;;;;;;;0.30;0.30;;;;;;;10.93;37.55;100680.13;5027118;28;20025;-56
2023/04/22 00:48:13;;;;;;;0.38;0.38;;;;;;;10.93;37.34;100681.88;5026880;28;20025;-55
2023/04/22 00:50:39;;;;;;;0.40;0.40;;;;;;;10.98;37.20;100680.09;5027183;28;20065;-56
2023/04/22 00:53:04;;;;;;;0.40;0.40;;;;;;;10.97;37.27;100676.66;5026896;28;20053;-55
2023/04/22 00:55:30;;;;;;;0.30;0.30;;;;;;;11.06;37.45;100675.72;5027134;28;20025;-52
2023/04/22 00:57:59;;;;;;;0.40;0.40;;;;;;;11.13;37.49;100684.34;5026943;28;20026;-54
2023/04/22 01:00:26;;;;;;;0.30;0.30;;;;;;;11.14;37.35;100676.53;5026594;28;20036;-57
2023/04/22 01:02:53;;;;;;;0.30;0.30;;;;;;;11.19;37.37;100673.91;5026418;28;20393;-58
2023/04/22 01:05:19;;;;;;;0.30;0.30;;;;;;;11.24;37.42;100685.16;5027037;28;20076;-58
2023/04/22 01:07:44;;;;;;;0.57;0.57;;;;;;;11.25;37.12;100680.78;5026868;28;20057;-57
2023/04/22 01:10:10;;;;;;;0.47;0.47;;;;;;;11.27;37.13;100679.94;5026746;28;20021;-55
2023/04/22 01:12:35;;;;;;;0.40;0.40;;;;;;;11.29;37.06;100674.72;5026271;28;20022;-58
2023/04/22 01:15:01;;;;;;;0.40;0.40;;;;;;;11.30;37.19;100676.44;5026642;28;20056;-58
2023/04/22 01:17:27;;;;;;;0.40;0.40;;;;;;;11.32;37.12;100674.69;5026464;28;20021;-57
2023/04/22 01:19:54;;;;;;;0.40;0.40;;;;;;;11.33;37.18;100672.94;5026479;28;20036;-54
2023/04/22 01:22:21;;;;;;;0.30;0.30;;;;;;;11.35;37.80;100681.59;5026624;28;20053;-54
2023/04/22 01:24:46;;;;;;;0.30;0.30;;;;;;;11.36;38.16;100678.09;5026253;28;20022;-56
2023/04/22 01:27:12;;;;;;;0.40;0.40;;;;;;;11.35;38.46;100679.00;5026199;28;20028;-50
2023/04/22 01:29:37;;;;;;;0.40;0.40;;;;;;;11.37;39.30;100677.25;5026062;28;20385;-55
2023/04/22 01:32:04;;;;;;;0.40;0.40;;;;;;;11.40;39.57;100672.91;5026150;28;20133;-56
2023/04/22 01:34:30;;;;;;;0.30;0.30;;;;;;;11.42;39.70;100678.09;5026620;28;20105;-57
2023/04/22 01:36:56;;;;;;;0.30;0.30;;;;;;;11.36;39.77;100665.97;5024770;28;20054;-57
2023/04/22 01:39:21;;;;;;;0.30;0.30;;;;;;;11.38;39.86;100674.66;5026235;28;20534;-57
2023/04/22 01:41:47;;;;;;;0.40;0.40;;;;;;;11.40;40.19;100677.22;5024310;28;20025;-57
2023/04/22 01:44:13;;;;;;;0.30;0.30;;;;;;;11.37;40.35;100677.25;5025995;28;20657;-58
2023/04/22 01:46:39;;;;;;;0.40;0.40;;;;;;;11.37;40.73;100672.06;5026296;28;20041;-59
2023/04/22 01:49:04;;;;;;;0.40;0.40;;;;;;;11.37;40.76;100669.47;5025710;28;20038;-57
2023/04/22 01:51:30;;;;;;;0.30;0.30;;;;;;;11.34;40.76;100661.69;5025879;28;20029;-58
2023/04/22 01:53:56;;;;;;;0.30;0.30;;;;;;;11.27;40.82;100672.13;5026066;28;20034;-58
2023/04/22 01:56:21;;;;;;;0.43;0.43;;;;;;;11.23;40.89;100664.38;5025618;28;20038;-55
2023/04/22 01:58:47;;;;;;;0.30;0.30;;;;;;;11.12;40.95;100665.28;5025831;28;20029;-58
2023/04/22 02:01:12;;;;;;;0.30;0.30;;;;;;;11.07;41.28;100666.19;5024405;28;20089;-56
2023/04/22 02:03:38;;;;;;;0.38;0.38;;;;;;;10.94;41.96;100650.69;5025807;28;20025;-59
2023/04/22 02:06:03;;;;;;;0.30;0.30;;;;;;;10.91;42.57;100664.53;5025751;28;20030;-57
2023/04/22 02:08:29;;;;;;;1.55;1.30;;;;;;;10.77;43.23;100659.44;5025853;28;20026;-54
2023/04/22 02:10:55;;;;;;;0.40;0.40;;;;;;;10.63;43.64;100656.91;5025890;28;20056;-54
2023/04/22 02:13:20;;;;;;;0.30;0.30;;;;;;;10.48;44.13;100657.81;5025567;28;20048;-55
2023/04/22 02:15:45;;;;;;;0.30;0.30;;;;;;;10.39;44.29;100656.09;5023302;28;20317;-56
2023/04/22 02:18:11;;;;;;;0.30;0.30;;;;;;;10.32;44.54;100663.91;5025301;28;20036;-56
2023/04/22 02:20:36;;;;;;;0.30;0.30;;;;;;;10.33;44.87;100657.84;5025733;28;20509;-56
2023/04/22 02:23:02;;;;;;;0.38;0.38;;;;;;;10.30;45.03;100643.16;5025446;28;20029;-56
2023/04/22 02:25:28;;;;;;;0.30;0.30;;;;;;;10.31;45.35;100647.47;5025511;28;20122;-56
2023/04/22 02:27:54;;;;;;;0.30;0.30;;;;;;;10.25;45.53;100642.31;5024972;28;20031;-54
2023/04/22 02:30:20;;;;;;;0.40;0.40;;;;;;;10.21;45.88;100641.44;5025066;28;20066;-55
2023/04/22 02:32:45;;;;;;;0.30;0.30;;;;;;;10.15;46.22;100646.66;5025373;28;20048;-58
2023/04/22 02:35:11;;;;;;;0.40;0.40;;;;;;;10.15;46.43;100642.34;5025015;28;20029;-54
2023/04/22 02:37:37;;;;;;;1.65;1.55;;;;;;;10.03;46.67;100638.03;5025155;28;20026;-58
2023/04/22 02:40:03;;;;;;;0.40;0.40;;;;;;;9.91;47.16;100631.16;5024656;28;20028;-59
2023/04/22 02:42:29;;;;;;;0.50;0.50;;;;;;;9.87;47.53;100621.63;5025148;28;20046;-57
2023/04/22 02:44:54;;;;;;;0.40;0.40;;;;;;;9.84;47.66;100626.00;5024090;28;20037;-55
2023/04/22 02:47:21;;;;;;;0.32;0.32;;;;;;;9.83;48.02;100635.50;5025018;28;20047;-58
2023/04/22 02:49:46;;;;;;;0.40;0.40;;;;;;;9.89;47.97;100630.28;5024769;28;20054;-58
2023/04/22 02:52:12;;;;;;;1.13;1.02;;;;;;;9.88;48.04;100628.56;5024929;28;20018;-56
2023/04/22 02:54:37;;;;;;;0.30;0.30;;;;;;;9.89;48.15;100632.00;5024743;28;20022;-57
2023/04/22 02:57:03;;;;;;;0.88;0.88;;;;;;;9.83;48.43;100627.72;5025006;28;20477;-56
2023/04/22 02:59:28;;;;;;;0.77;0.73;;;;;;;9.70;48.63;100629.47;5023364;28;20029;-56
2023/04/22 03:01:53;;;;;;;0.40;0.40;;;;;;;9.69;48.79;100621.69;5024615;28;20030;-54
2023/04/22 03:04:20;;;;;;;0.40;0.40;;;;;;;9.55;49.19;100609.63;5024689;28;20018;-56
2023/04/22 03:06:49;;;;;;;0.30;0.30;;;;;;;9.41;49.54;100609.59;5023988;28;20028;-57
2023/04/22 03:09:14;;;;;;;0.40;0.40;;;;;;;9.30;49.85;100613.06;5023036;28;20033;-57
2023/04/22 03:11:40;;;;;;;1.58;1.48;;;;;;;9.21;50.08;100601.84;5022786;28;20629;-56
2023/04/22 03:14:05;;;;;;;0.40;0.40;;;;;;;9.28;50.20;100616.53;5023058;28;20072;-54
2023/04/22 03:16:32;;;;;;;0.40;0.40;;;;;;;9.17;50.31;100617.38;5024600;28;20026;-57
2023/04/22 03:18:57;;;;;;;0.30;0.30;;;;;;;9.15;50.48;100607.88;5024400;28;20033;-58
2023/04/22 03:21:23;;;;;;;0.40;0.40;;;;;;;9.10;50.44;100612.19;5024652;28;20029;-54
2023/04/22 03:23:48;;;;;;;0.40;0.40;;;;;;;9.08;50.62;100619.09;5024413;28;20093;-57
2023/04/22 03:26:13;;;;;;;0.30;0.30;;;;;;;9.02;50.89;100612.19;5023066;28;20025;-56
2023/04/22 03:28:39;;;;;;;0.30;0.30;;;;;;;8.94;50.91;100596.63;5024546;28;20025;-56
2023/04/22 03:31:04;;;;;;;0.30;0.30;;;;;;;9.10;50.74;100597.53;5024557;28;20022;-54
2023/04/22 03:33:30;;;;;;;0.63;0.63;;;;;;;9.08;50.76;100604.41;5024414;28;20026;-57
2023/04/22 03:35:55;;;;;;;0.30;0.30;;;;;;;9.00;50.92;100599.22;5024250;28;20048;-58
2023/04/22 03:38:21;;;;;;;0.40;0.40;;;;;;;8.90;51.14;100595.75;5024241;28;20488;-54
2023/04/22 03:40:46;;;;;;;0.40;0.40;;;;;;;8.89;51.09;100590.59;5024443;28;20076;-54
2023/04/22 03:43:11;;;;;;;0.40;0.40;;;;;;;8.79;51.21;100585.38;5039547;28;20025;-57
2023/04/22 03:45:37;;;;;;;0.30;0.30;;;;;;;8.75;51.44;100585.38;5022427;28;20037;-53
2023/04/22 03:48:02;;;;;;;0.40;0.40;;;;;;;8.68;51.70;100579.31;5024063;28;20029;-54
2023/04/22 03:50:28;;;;;;;0.35;0.35;;;;;;;8.61;51.61;100578.44;5023783;28;20057;-56
2023/04/22 03:52:53;;;;;;;0.40;0.40;;;;;;;8.66;51.69;100578.44;5022945;28;20022;-51
2023/04/22 03:55:19;;;;;;;0.30;0.30;;;;;;;8.58;51.87;100573.25;5024141;28;20021;-58
2023/04/22 03:57:44;;;;;;;0.40;0.40;;;;;;;8.61;51.91;100580.19;5024002;28;20026;-58
2023/04/22 04:00:10;;;;;;;0.40;0.40;;;;;;;8.57;52.00;100575.84;5039152;28;20045;-56
2023/04/22 04:02:36;;;;;;;0.60;0.60;;;;;;;8.48;52.24;100574.91;5023681;28;20014;-56
2023/04/22 04:05:01;;;;;;;0.50;0.50;;;;;;;8.45;52.40;100571.47;5023948;28;20032;-56
2023/04/22 04:07:26;;;;;;;0.50;0.50;;;;;;;8.39;52.45;100570.59;5023791;28;20081;-58
2023/04/22 04:09:52;;;;;;;0.40;0.40;;;;;;;8.45;52.53;100572.31;5023862;28;20021;-57
2023/04/22 04:12:17;;;;;;;0.40;0.40;;;;;;;8.47;52.45;100570.63;5023807;28;20322;-57
2023/04/22 04:14:43;;;;;;;0.40;0.40;;;;;;;8.45;52.48;100569.72;5023286;28;20081;-57
2023/04/22 04:17:08;;;;;;;0.40;0.40;;;;;;;8.44;52.55;100573.19;5022466;28;20354;-57
2023/04/22 04:19:34;;;;;;;0.40;0.40;;;;;;;8.44;52.42;100568.00;5027148;28;20486;-61
2023/04/22 04:22:00;;;;;;;0.40;0.40;;;;;;;8.51;52.54;100572.38;5027400;28;20109;-61
2023/04/22 04:24:26;;;;;;;0.40;0.40;;;;;;;8.66;52.31;100574.16;5026092;28;20026;-61
2023/04/22 04:26:52;;;;;;;0.40;0.40;;;;;;;8.98;52.09;100569.88;5027770;28;20033;-62
2023/04/22 04:29:19;;;;;;;0.88;0.88;;;;;;;9.27;51.69;100574.22;5027277;28;20056;-61
2023/04/22 04:31:44;;;;;;;0.40;0.40;;;;;;;9.58;51.21;100572.44;5027706;28;20025;-61
2023/04/22 04:34:10;;;;;;;0.40;0.40;;;;;;;9.94;50.25;100565.44;5027889;28;20490;-62
2023/04/22 04:36:35;;;;;;;0.40;0.40;;;;;;;10.22;49.69;100564.47;5027403;28;20025;-61
2023/04/22 04:39:01;;;;;;;0.75;0.75;;;;;;;10.41;49.20;100566.09;5027403;28;20026;-61
2023/04/22 04:41:27;;;;;;;0.30;0.30;;;;;;;10.59;48.43;100559.13;5027441;28;20034;-62
2023/04/22 04:43:52;;;;;;;0.30;0.30;;;;;;;10.77;48.00;100560.75;5027486;28;20085;-61
2023/04/22 04:46:18;;;;;;;0.30;0.30;;;;;;;10.90;48.35;100560.66;5027138;28;20032;-62
2023/04/22 04:48:45;;;;;;;0.30;0.30;;;;;;;11.23;48.36;100558.66;5042381;28;20101;-61
2023/04/22 04:51:11;;;;;;;0.50;0.50;;;;;;;11.62;47.06;100558.31;5027615;28;20100;-62
2023/04/22 04:53:36;;;;;;;0.30;0.30;;;;;;;11.87;46.07;100562.34;5027135;28;20029;-62
2023/04/22 04:56:02;;;;;;;0.30;0.30;;;;;;;11.89;45.83;100561.47;5027288;28;20066;-62
2023/04/22 04:58:28;;;;;;;0.40;0.40;;;;;;;11.97;46.07;100558.78;5042079;28;20076;-62
2023/04/22 05:00:53;;;;;;;0.63;0.63;;;;;;;12.26;45.25;100561.94;5026406;28;20037;-62
2023/04/22 05:03:18;;;;;;;0.47;0.47;;;;;;;12.36;44.95;100560.91;5026927;28;20022;-62
2023/04/22 05:05:47;;;;;;;0.30;0.30;;;;;;;12.37;45.03;100556.59;5026651;28;20061;-62
2023/04/22 05:08:12;;;;;;;1.38;0.93;;;;;;;12.39;45.39;100560.03;5026778;28;20121;-62
2023/04/22 05:10:38;;;;;;;0.60;0.60;;;;;;;12.66;44.80;100559.66;5026733;28;20543;-62
2023/04/22 05:13:03;;;;;;;0.30;0.30;;;;;;;12.96;45.07;100554.84;5026738;28;20025;-62
2023/04/22 05:15:29;;;;;;;0.35;0.35;;;;;;;13.34;44.48;100561.19;5026541;28;20077;-62
2023/04/22 05:17:54;;;;;;;0.93;0.93;;;;;;;13.61;43.29;100564.22;5026760;28;20026;-62
2023/04/22 05:20:19;;;;;;;0.30;0.30;;;;;;;13.70;43.46;100544.06;5026388;28;20026;-61
2023/04/22 05:22:45;;;;;;;0.35;0.35;;;;;;;13.91;43.65;100545.41;5025772;28;20021;-62
2023/04/22 05:25:10;;;;;;;1.25;1.15;;;;;;;14.18;42.70;100532.66;5025886;28;20022;-61
2023/04/22 05:27:36;;;;;;;0.40;0.40;;;;;;;14.29;41.74;100535.03;5026326;28;20090;-63
2023/04/22 05:30:02;;;;;;;0.30;0.30;;;;;;;14.25;41.67;100528.13;5024202;28;20018;-62
2023/04/22 05:32:27;;;;;;;0.30;0.30;;;;;;;14.30;41.49;100530.66;5026557;28;20026;-62
2023/04/22 05:34:53;;;;;;;0.60;0.60;;;;;;;14.25;41.66;100530.75;5026541;28;20057;-61
2023/04/22 05:37:18;;;;;;;0.30;0.30;;;;;;;14.27;42.14;100530.72;5026409;28;20025;-60
2023/04/22 05:39:44;;;;;;;0.30;0.30;;;;;;;14.55;41.15;100523.16;5025996;28;20085;-60
2023/04/22 05:42:10;;;;;;;0.82;0.82;;;;;;;14.46;40.92;100521.59;5026306;28;20393;-62
2023/04/22 05:44:35;;;;;;;0.30;0.30;;;;;;;14.47;40.65;100522.47;5026180;28;20026;-61
2023/04/22 05:47:00;;;;;;;0.30;0.30;;;;;;;14.40;41.42;100520.88;5026514;28;20030;-61
2023/04/22 05:49:26;;;;;;;0.95;0.95;;;;;;;14.52;41.06;100520.56;5025875;28;20559;-61
2023/04/22 05:51:51;;;;;;;0.68;0.68;;;;;;;14.74;40.33;100517.47;5026280;28;20037;-61
2023/04/22 05:54:16;;;;;;;0.90;0.90;;;;;;;14.79;40.41;100517.38;5025567;28;20061;-61
2023/04/22 05:56:42;;;;;;;0.30;0.30;;;;;;;14.83;40.02;100517.28;5026041;28;20022;-60
2023/04/22 05:59:07;;;;;;;0.30;0.30;;;;;;;14.78;40.00;100506.03;5026016;28;20018;-62
2023/04/22 06:01:35;;;;;;;0.30;0.30;;;;;;;14.96;39.64;100503.91;5024740;28;20033;-61
2023/04/22 06:04:00;;;;;;;0.52;0.52;;;;;;;14.89;39.84;100502.34;5025875;28;20030;-62
2023/04/22 06:06:26;;;;;;;0.70;0.70;;;;;;;15.10;39.48;100501.81;5025866;28;20026;-62
2023/04/22 06:08:51;;;;;;;0.30;0.30;;;;;;;15.23;39.36;100502.34;5026045;28;20482;-60
2023/04/22 06:11:17;;;;;;;0.57;0.40;;;;;;;15.43;38.97;100489.63;5025854;28;20030;-61
2023/04/22 06:13:42;;;;;;;0.82;0.82;;;;;;;15.51;38.61;100492.88;5025621;28;20025;-61
2023/04/22 06:16:08;;;;;;;0.43;0.43;;;;;;;15.64;38.59;100490.78;5025563;28;20055;-60
2023/04/22 06:18:35;;;;;;;0.50;0.50;;;;;;;15.90;38.23;100476.06;5025260;28;20037;-61
2023/04/22 06:21:00;;;;;;;0.40;0.40;;;;;;;16.18;37.40;100492.75;5025536;28;20320;-62
2023/04/22 06:23:26;;;;;;;0.30;0.30;;;;;;;16.49;38.45;100489.16;5025650;28;20018;-61
2023/04/22 06:25:51;;;;;;;0.30;0.30;;;;;;;17.28;38.37;100483.09;5025731;28;20092;-62
2023/04/22 06:28:17;;;;;;;0.32;0.32;;;;;;;18.48;37.82;100477.78;5025599;28;20381;-61
2023/04/22 06:30:42;;;;;;;0.20;0.20;;;;;;;19.63;36.20;100479.13;5025219;28;20026;-61
2023/04/22 06:33:07;;;;;;;0.40;0.40;;;;;;;20.16;34.29;100472.28;5024779;28;20498;-62
2023/04/22 06:35:33;;;;;;;0.30;0.30;;;;;;;20.52;33.86;100478.50;5024041;28;20032;-61
2023/04/22 06:37:59;;;;;;;0.57;0.57;;;;;;;20.79;33.38;100475.41;5025090;28;20037;-62
2023/04/22 06:40:24;;;;;;;0.20;0.20;;;;;;;21.63;33.76;100464.13;5024823;28;20100;-61
2023/04/22 06:42:50;;;;;;;0.20;0.20;;;;;;;22.21;32.99;100459.19;5025319;28;20065;-62
2023/04/22 06:45:15;;;;;;;0.20;0.20;;;;;;;22.51;31.65;100458.34;5025031;28;20026;-62
2023/04/22 06:47:41;;;;;;;0.20;0.20;;;;;;;22.69;31.26;100452.97;5023619;28;20018;-61
2023/04/22 06:50:08;;;;;;;0.20;0.20;;;;;;;22.47;30.22;100454.19;5024417;28;20540;-62
2023/04/22 06:52:33;;;;;;;0.20;0.20;;;;;;;22.46;29.33;100447.19;5025110;28;20032;-62
2023/04/22 06:55:02;;;;;;;0.28;0.28;;;;;;;22.16;28.27;100442.72;5025049;28;20029;-61
2023/04/22 06:57:28;;;;;;;1.48;1.38;;;;;;;21.69;29.10;100452.34;5025195;28;20037;-61
2023/04/22 06:59:54;;;;;;;0.20;0.20;;;;;;;21.81;29.82;100450.84;5024784;28;20049;-62
2023/04/22 07:02:20;;;;;;;0.32;0.32;;;;;;;22.08;29.01;100455.56;5024308;28;20438;-62
2023/04/22 07:04:46;;;;;;;0.20;0.20;;;;;;;22.21;29.29;100448.59;5024168;28;20033;-62
2023/04/22 07:07:11;;;;;;;0.20;0.20;;;;;;;22.71;28.87;100455.53;5023712;28;20034;-62
2023/04/22 07:09:37;;;;;;;0.55;0.55;;;;;;;23.43;28.39;100451.28;5024597;28;20022;-62
2023/04/22 07:12:03;;;;;;;0.10;0.10;;;;;;;23.89;27.84;100452.81;5024604;28;20327;-61
2023/04/22 07:14:28;;;;;;;0.10;0.10;;;;;;;24.23;27.62;100445.31;5024042;28;20041;-61
2023/04/22 07:16:53;;;;;;;0.15;0.15;;;;;;;24.74;26.70;100446.44;5024514;28;20022;-61
2023/04/22 07:19:20;;;;;;;0.10;0.10;;;;;;;24.75;25.31;100442.81;5024395;28;20083;-60
2023/04/22 07:21:47;;;;;;;0.17;0.17;;;;;;;24.48;25.25;100437.53;5024506;28;20025;-61
2023/04/22 07:24:13;;;;;;;0.10;0.10;;;;;;;24.04;25.65;100442.16;5024497;28;20049;-61
2023/04/22 07:26:41;;;;;;;1.13;0.75;;;;;;;24.07;26.11;100442.81;5024583;28;20061;-61
2023/04/22 07:29:06;;;;;;;2.63;1.45;;;;;;;24.49;25.85;100436.59;5024342;28;20022;-60
2023/04/22 07:31:35;;;;;;;0.10;0.10;;;;;;;24.46;25.71;100434.13;5024453;28;20036;-61
2023/04/22 07:34:01;;;;;;;0.20;0.20;;;;;;;24.29;25.56;100432.63;5024373;28;20028;-61
2023/04/22 07:36:27;;;;;;;8.13;2.08;;;;;;;24.56;25.85;100426.41;5024725;28;20049;-60
2023/04/22 07:38:52;;;;;;;0.73;0.73;;;;;;;25.09;25.82;100430.84;5023412;28;20141;-60
2023/04/22 07:41:18;;;;;;;0.10;0.10;;;;;;;25.44;25.96;100424.84;5024528;28;20539;-61
2023/04/22 07:43:44;;;;;;;0.10;0.10;;;;;;;25.88;25.53;100415.59;5024170;28;20049;-61
2023/04/22 07:46:09;;;;;;;0.10;0.10;;;;;;;26.06;25.11;100416.03;5023673;28;20048;-61
2023/04/22 07:48:35;;;;;;;0.65;0.65;;;;;;;25.83;23.44;100414.09;5024214;28;20029;-61
2023/04/22 07:51:01;;;;;;;1.23;1.15;;;;;;;25.46;22.95;100417.59;5022963;28;20117;-61
2023/04/22 07:53:26;;;;;;;1.05;0.80;;;;;;;25.26;23.43;100413.69;5022443;28;20081;-61
2023/04/22 07:55:52;;;;;;;0.10;0.10;;;;;;;25.66;23.66;100412.69;5024073;28;20033;-61
2023/04/22 07:58:17;;;;;;;0.10;0.10;;;;;;;25.98;21.29;100411.28;5024070;28;20024;-61
2023/04/22 08:00:43;;;;;;;0.10;0.10;;;;;;;25.37;20.97;100408.47;5023637;28;20301;-61
2023/04/22 08:03:08;;;;;;;0.10;0.10;;;;;;;25.14;21.14;100407.47;5024165;28;20603;-61
2023/04/22 08:05:34;;;;;;;0.20;0.20;;;;;;;25.03;20.19;100408.22;5024152;28;20113;-61
2023/04/22 08:07:59;;;;;;;0.10;0.10;;;;;;;24.60;19.94;100410.19;5024061;28;20064;-61
2023/04/22 08:10:25;;;;;;;0.20;0.20;;;;;;;24.24;20.84;100403.75;5022438;28;20022;-61
2023/04/22 08:12:50;;;;;;;0.17;0.17;;;;;;;24.06;21.22;100408.47;5023727;28;20101;-61
2023/04/22 08:15:15;;;;;;;0.20;0.20;;;;;;;24.38;20.90;100410.78;5023586;28;20026;-61
2023/04/22 08:17:41;;;;;;;0.20;0.20;;;;;;;25.21;21.46;100391.91;5023917;28;20386;-63
2023/04/22 08:20:07;;;;;;;0.50;0.50;;;;;;;25.85;19.89;100398.03;5023604;28;20022;-63
2023/04/22 08:22:34;;;;;;;0.10;0.10;;;;;;;25.54;20.12;100393.16;5023903;28;20037;-62
2023/04/22 08:24:59;;;;;;;0.20;0.20;;;;;;;25.49;18.74;100405.91;5023711;28;20052;-66
2023/04/22 08:27:24;;;;;;;0.25;0.25;;;;;;;25.17;20.06;100396.63;5024017;28;20429;-67
2023/04/22 08:29:50;;;;;;;0.10;0.10;;;;;;;25.71;19.51;100386.63;5023372;28;20084;-65
2023/04/22 08:32:18;;;;;;;0.20;0.20;;;;;;;26.32;18.78;100376.03;5023013;28;20046;-71
2023/04/22 08:34:43;;;;;;;0.10;0.10;;;;;;;26.96;18.43;100381.81;5022139;28;20413;-71
2023/04/22 08:37:09;;;;;;;0.65;0.65;;;;;;;27.36;17.53;100388.47;5023792;28;20044;-67
2023/04/22 08:39:34;;;;;;;0.65;0.65;;;;;;;27.77;18.22;100379.91;5023493;28;20045;-66
2023/04/22 08:42:01;;;;;;;0.10;0.10;;;;;;;28.09;17.67;100379.94;5023751;28;20025;-67
2023/04/22 08:44:27;;;;;;;0.52;0.52;;;;;;;28.09;18.09;100373.72;5023813;28;20026;-67
2023/04/22 08:46:54;;;;;;;0.10;0.10;;;;;;;28.09;17.41;100379.94;5023698;28;20025;-68
2023/04/22 08:49:23;;;;;;;0.38;0.38;;;;;;;27.89;17.06;100375.41;5021865;28;20317;-68
2023/04/22 08:51:49;;;;;;;0.22;0.22;;;;;;;27.80;16.76;100369.00;5021137;28;20100;-63
2023/04/22 08:54:15;;;;;;;0.10;0.10;;;;;;;27.75;16.95;100373.88;5023561;28;20632;-69
2023/04/22 08:56:43;;;;;;;0.10;0.10;;;;;;;27.82;16.59;100362.56;5022711;28;20049;-69
2023/04/22 08:59:10;;;;;;;0.38;0.38;;;;;;;28.27;16.26;100362.47;5023350;28;20033;-66
2023/04/22 09:01:37;;;;;;;0.10;0.10;;;;;;;28.79;16.59;100365.19;5023289;28;20026;-67
2023/04/22 09:04:03;;;;;;;0.10;0.10;;;;;;;29.13;16.21;100364.09;5022875;28;20126;-64
2023/04/22 09:06:31;;;;;;;0.10;0.10;;;;;;;29.45;16.41;100356.84;5026049;28;20131;-66
2023/04/22 09:08:57;;;;;;;0.17;0.17;;;;;;;29.94;15.83;100356.91;5026055;28;20037;-63
2023/04/22 09:11:29;;;;;;;0.10;0.10;;;;;;;30.14;14.52;100364.09;5027078;28;20055;-65
2023/04/22 09:13:55;;;;;;;0.10;0.10;;;;;;;30.26;14.65;100357.59;5026365;28;20116;-68
2023/04/22 09:16:20;;;;;;;0.57;0.57;;;;;;;30.82;15.12;100358.75;5026793;28;20164;-64
2023/04/22 09:18:46;;;;;;;0.20;0.20;;;;;;;31.17;14.76;100359.84;5052856;23;20057;-66
2023/04/22 09:21:11;;;;;;;0.10;0.10;;;;;;;31.39;14.05;100355.94;5281640;22;20084;-64
2023/04/22 09:23:50;;;;;;;0.38;0.38;;;;;;;31.11;14.27;100357.75;5046568;28;20029;-63
2023/04/22 09:26:23;;;;;;;0.10;0.10;;;;;;;30.79;14.71;100366.09;5046571;28;20026;-63
2023/04/22 09:28:54;;;;;;;0.10;0.10;;;;;;;30.62;14.88;100362.31;5046407;28;20067;-65
2023/04/22 09:31:21;;;;;;;14.02;3.38;;;;;;;30.85;14.51;100369.19;5046602;28;20017;-65
2023/04/22 09:33:56;;;;;;;0.10;0.10;;;;;;;30.60;14.72;100364.28;5046586;28;20021;-63
2023/04/22 09:36:26;;;;;;;0.10;0.10;;;;;;;30.27;14.37;100358.47;5046861;28;20026;-63
2023/04/22 09:38:58;;;;;;;0.10;0.10;;;;;;;30.27;14.16;100361.97;5046381;28;20017;-66
2023/04/22 09:41:27;;;;;;;0.10;0.10;;;;;;;30.14;14.88;100367.63;5046638;28;20036;-56
2023/04/22 09:43:57;;;;;;;0.30;0.30;;;;;;;29.99;14.57;100363.66;5046574;28;20057;-56
2023/04/22 09:46:24;;;;;;;0.22;0.22;;;;;;;30.16;14.79;100354.91;5046200;28;20028;-59
2023/04/22 09:48:50;;;;;;;1.85;1.00;;;;;;;30.66;14.50;100352.13;5046350;28;20218;-65
2023/04/22 09:51:16;;;;;;;0.10;0.10;;;;;;;30.99;14.09;100349.09;5046532;28;20026;-62
2023/04/22 09:53:42;;;;;;;0.20;0.20;;;;;;;31.17;14.14;100354.47;5046251;28;20025;-62
2023/04/22 09:56:08;;;;;;;0.57;0.57;;;;;;;30.97;13.88;100343.88;5273185;23;20119;-63
2023/04/22 09:58:38;;;;;;;0.10;0.10;;;;;;;31.06;13.63;100339.44;5347639;22;20050;-63
2023/04/22 10:01:04;;;;;;;0.63;0.63;;;;;;;30.89;13.21;100344.63;5377818;22;20024;-65
2023/04/22 10:03:30;;;;;;;0.10;0.10;;;;;;;30.98;14.03;100336.66;5319754;22;20339;-63
2023/04/22 10:05:56;;;;;;;0.15;0.15;;;;;;;30.86;13.55;100339.56;5198551;22;20160;-67
2023/04/22 10:08:22;;;;;;;0.40;0.40;;;;;;;30.82;13.67;100335.47;5274973;22;20086;-62
2023/04/22 10:10:47;;;;;;;1.15;1.08;;;;;;;30.84;12.80;100327.28;5266547;22;20050;-62
2023/04/22 10:13:13;;;;;;;0.10;0.10;;;;;;;30.71;13.13;100330.28;5273337;22;20050;-62
2023/04/22 10:18:19;;;;;;;0.57;0.57;;;;;;;31.35;13.34;100319.66;5066060;22;20049;-63
2023/04/22 10:20:46;;;;;;;0.10;0.10;;;;;;;31.38;12.19;100311.34;5025625;28;20025;-59
2023/04/22 10:23:16;;;;;;;0.73;0.73;;;;;;;31.28;12.08;100310.50;5350181;22;20424;-61
2023/04/22 10:25:47;;;;;;;0.10;0.10;;;;;;;30.86;12.75;100311.91;5275410;23;20052;-62
2023/04/22 10:28:16;;;;;;;0.10;0.10;;;;;;;30.99;12.42;100307.03;5298163;23;20049;-66
2023/04/22 10:30:41;;;;;;;0.20;0.20;;;;;;;31.14;12.27;100306.53;5040599;23;20041;-62
2023/04/22 10:33:30;;;;;;;0.10;0.10;;;;;;;30.83;12.03;100306.84;5045486;28;20021;-59
2023/04/22 10:36:10;;;;;;;0.82;0.82;;;;;;;30.51;11.88;100304.41;5045024;28;20025;-59
2023/04/22 10:38:36;;;;;;;0.10;0.10;;;;;;;30.14;11.52;100300.69;5045193;28;20087;-59
2023/04/22 10:41:02;;;;;;;0.10;0.10;;;;;;;29.72;11.94;100293.84;5045193;28;20045;-60
2023/04/22 10:43:40;;;;;;;0.10;0.10;;;;;;;29.53;12.05;100289.31;5045033;28;20025;-60
2023/04/22 10:46:06;;;;;;;0.45;0.45;;;;;;;29.77;12.42;100282.72;5044602;28;20040;-60
2023/04/22 10:48:50;;;;;;;0.10;0.10;;;;;;;30.10;12.23;100269.00;5037168;23;20132;-74
2023/04/22 10:51:41;;;;;;;0.10;0.10;;;;;;;29.85;11.73;100282.84;5025232;28;20465;-73
2023/04/22 10:57:21;;;;;;;0.52;0.52;;;;;;;29.20;12.37;100269.00;5024669;28;20034;-67
2023/04/22 10:59:50;;;;;;;0.10;0.10;;;;;;;29.14;12.01;100269.56;5023595;28;20120;-66
2023/04/22 11:02:17;;;;;;;0.90;0.80;;;;;;;28.98;12.81;100255.91;5024804;28;20633;-66
2023/04/22 11:04:43;;;;;;;0.15;0.15;;;;;;;29.09;12.41;100262.97;5024962;28;20040;-67
2023/04/22 11:07:28;;;;;;;0.30;0.30;;;;;;;29.09;12.66;100255.75;5024863;28;20029;-66
2023/04/22 11:10:04;;;;;;;0.10;0.10;;;;;;;29.33;12.83;100254.53;5025100;28;20026;-65
2023/04/22 11:12:38;;;;;;;0.38;0.38;;;;;;;29.83;12.71;100247.34;5024488;28;20032;-66
2023/04/22 11:15:11;;;;;;;0.10;0.10;;;;;;;29.94;12.13;100243.66;5024357;28;20448;-66
2023/04/22 11:17:38;;;;;;;0.10;0.10;;;;;;;29.94;12.61;100249.03;5024652;28;20029;-66
2023/04/22 11:20:05;;;;;;;0.30;0.30;;;;;;;30.01;12.45;100238.59;5024131;28;20109;-66
2023/04/22 11:22:35;;;;;;;0.98;0.98;;;;;;;29.94;12.34;100244.53;5023232;28;20444;-66
2023/04/22 11:25:03;;;;;;;0.88;0.85;;;;;;;28.77;13.01;100240.78;5024657;28;20029;-66
2023/04/22 11:27:31;;;;;;;0.10;0.10;;;;;;;27.20;14.00;100245.81;5023943;28;20017;-66
2023/04/22 11:29:59;;;;;;;0.10;0.10;;;;;;;25.73;14.75;100243.81;5023212;28;20028;-69